Time;durP1;ratioP1;P1;durP2;ratioP2;P2;SDS_P1;SDS_P2;PMS_P1;PMS_P2;Temp;Humidity;BMP_temperature;BMP_pressure;BME280_temperature;BME280_humidity;BME280_pressure;Samples;Min_cycle;Max_cycle;Signal;HPM_P1;HPM_P2
2023/07/07 00:01:01;;;;;;;;;;;;;;;11.70;100.00;101907.84;5015071;28;20341;-70
2023/07/07 00:03:26;;;;;;;;;;;;;;;11.69;100.00;101903.44;5015816;28;20339;-70
2023/07/07 00:05:51;;;;;;;;;;;;;;;11.70;100.00;101901.59;5034227;28;20017;-70
2023/07/07 00:08:16;;;;;;;;;;;;;;;11.72;100.00;101901.50;5013175;28;19940;-70
2023/07/07 00:10:42;;;;;;;;;;;;;;;11.65;100.00;101903.75;5029437;28;19928;-70
2023/07/07 00:13:08;;;;;;;;;;;;;;;11.52;100.00;101901.00;5013836;28;19925;-70
2023/07/07 00:15:33;;;;;;;;;;;;;;;11.47;100.00;101905.81;5015560;28;19921;-70
2023/07/07 00:17:59;;;;;;;;;;;;;;;11.40;100.00;101903.50;5014451;28;19931;-70
2023/07/07 00:20:24;;;;;;;;;;;;;;;11.34;100.00;101906.59;4998612;28;19931;-70
2023/07/07 00:22:49;;;;;;;;;;;;;;;11.23;100.00;101906.41;5013194;28;19952;-70
2023/07/07 00:25:15;;;;;;;;;;;;;;;11.19;100.00;101911.09;5033649;28;19925;-70
2023/07/07 00:27:40;;;;;;;;;;;;;;;11.17;100.00;101910.34;5014937;28;20414;-70
2023/07/07 00:30:06;;;;;;;;;;;;;;;11.13;100.00;101910.66;5034009;28;20003;-70
2023/07/07 00:32:31;;;;;;;;;;;;;;;11.07;100.00;101907.38;5011656;28;19982;-70
2023/07/07 00:34:56;;;;;;;;;;;;;;;11.01;100.00;101907.75;5013887;28;19927;-70
2023/07/07 00:37:21;;;;;;;;;;;;;;;11.01;100.00;101912.28;5033809;28;19932;-69
2023/07/07 00:39:47;;;;;;;;;;;;;;;11.03;100.00;101910.34;5016900;28;20374;-70
2023/07/07 00:42:12;;;;;;;;;;;;;;;11.07;100.00;101902.00;5009584;28;19925;-70
2023/07/07 00:44:56;;;;;;;;;;;;;;;11.10;100.00;101912.56;5016341;28;19971;-70
2023/07/07 00:47:21;;;;;;;;;;;;;;;11.17;100.00;101906.81;5027689;28;19983;-70
2023/07/07 00:49:46;;;;;;;;;;;;;;;11.18;100.00;101909.38;5020894;28;19968;-70
2023/07/07 00:52:11;;;;;;;;;;;;;;;11.23;100.00;101909.09;5013069;28;20071;-70
2023/07/07 00:54:37;;;;;;;;;;;;;;;11.21;100.00;101908.34;5033712;28;20009;-70
2023/07/07 00:57:02;;;;;;;;;;;;;;;11.17;100.00;101912.19;5036485;28;20701;-70
2023/07/07 00:59:33;;;;;;;;;;;;;;;11.11;100.00;101905.38;5037241;28;20023;-70
2023/07/07 01:01:58;;;;;;;;;;;;;;;11.10;100.00;101904.50;5035594;28;19925;-70
2023/07/07 01:04:24;;;;;;;;;;;;;;;11.12;100.00;101908.91;5015698;28;20022;-70
2023/07/07 01:06:50;;;;;;;;;;;;;;;11.11;100.00;101913.44;5033170;28;19920;-70
2023/07/07 01:09:15;;;;;;;;;;;;;;;11.11;100.00;101910.75;5017934;28;20375;-70
2023/07/07 01:11:41;;;;;;;;;;;;;;;11.14;100.00;101907.00;5029427;28;19939;-70
2023/07/07 01:14:08;;;;;;;;;;;;;;;11.12;100.00;101911.59;5016423;28;19925;-70
2023/07/07 01:16:43;;;;;;;;;;;;;;;11.06;100.00;101902.97;5004275;28;20295;-70
2023/07/07 01:19:31;;;;;;;;;;;;;;;11.05;100.00;101903.06;5034779;28;20314;-70
2023/07/07 01:22:11;;;;;;;;;;;;;;;11.03;100.00;101905.84;5034607;28;20387;-70
2023/07/07 01:24:42;;;;;;;;;;;;;;;11.01;100.00;101912.28;5035188;28;20394;-70
2023/07/07 01:27:13;;;;;;;;;;;;;;;10.97;100.00;101910.75;5018182;28;20374;-70
2023/07/07 01:29:43;;;;;;;;;;;;;;;10.92;100.00;101905.66;5013967;28;20412;-70
2023/07/07 01:32:10;;;;;;;;;;;;;;;10.89;100.00;101912.06;5021325;28;19925;-70
2023/07/07 01:34:35;;;;;;;;;;;;;;;10.84;100.00;101907.94;5021182;28;19935;-70
2023/07/07 01:37:00;;;;;;;;;;;;;;;10.76;100.00;101921.88;5016533;28;20380;-70
2023/07/07 01:39:25;;;;;;;;;;;;;;;10.71;100.00;101916.78;5024805;28;19939;-70
2023/07/07 01:41:58;;;;;;;;;;;;;;;10.66;100.00;101918.88;5003459;28;19929;-70
2023/07/07 01:44:46;;;;;;;;;;;;;;;10.64;100.00;101916.28;5026647;28;19929;-70
2023/07/07 01:47:14;;;;;;;;;;;;;;;10.61;100.00;101916.44;5008182;28;19921;-70
2023/07/07 01:49:50;;;;;;;;;;;;;;;10.61;100.00;101916.44;5020958;28;19932;-70
2023/07/07 01:52:17;;;;;;;;;;;;;;;10.55;100.00;101906.13;5018251;28;19932;-70
2023/07/07 01:54:43;;;;;;;;;;;;;;;10.55;100.00;101905.22;5018083;28;19988;-70
2023/07/07 01:57:09;;;;;;;;;;;;;;;10.55;100.00;101905.22;5013562;28;20282;-70
2023/07/07 01:59:34;;;;;;;;;;;;;;;10.54;100.00;101906.19;5015489;28;19924;-70
2023/07/07 02:02:00;;;;;;;;;;;;;;;10.55;100.00;101902.53;5018864;28;19921;-70
2023/07/07 02:04:25;;;;;;;;;;;;;;;10.53;100.00;101904.44;5016677;28;19929;-70
2023/07/07 02:06:50;;;;;;;;;;;;;;;10.53;100.00;101907.13;5031165;28;20278;-70
2023/07/07 02:09:15;;;;;;;;;;;;;;;10.47;100.00;101903.88;5036505;28;19970;-70
2023/07/07 02:11:41;;;;;;;;;;;;;;;10.46;100.00;101910.19;5034035;28;19964;-70
2023/07/07 02:14:06;;;;;;;;;;;;;;;10.33;100.00;101893.94;5015382;28;19925;-70
2023/07/07 02:16:31;;;;;;;;;;;;;;;10.46;100.00;101904.81;5035178;28;19980;-70
2023/07/07 02:18:56;;;;;;;;;;;;;;;10.50;100.00;101905.53;5036394;28;19967;-70
2023/07/07 02:21:21;;;;;;;;;;;;;;;10.50;100.00;101911.75;5034547;28;20015;-70
2023/07/07 02:23:47;;;;;;;;;;;;;;;10.47;100.00;101909.22;5036496;28;19966;-70
2023/07/07 02:26:13;;;;;;;;;;;;;;;10.41;100.00;101916.81;5019267;28;19924;-70
2023/07/07 02:28:39;;;;;;;;;;;;;;;10.42;100.00;101911.34;5013943;28;20004;-70
2023/07/07 02:31:04;;;;;;;;;;;;;;;10.47;100.00;101908.38;5016242;28;19928;-70
2023/07/07 02:33:33;;;;;;;;;;;;;;;10.55;100.00;101906.13;5030133;28;19932;-70
2023/07/07 02:36:02;;;;;;;;;;;;;;;10.54;100.00;101906.19;5036601;28;19974;-70
2023/07/07 02:38:27;;;;;;;;;;;;;;;10.44;100.00;101908.56;5013689;28;19921;-70
2023/07/07 02:40:53;;;;;;;;;;;;;;;10.41;100.00;101911.44;5016986;28;19975;-70
2023/07/07 02:43:18;;;;;;;;;;;;;;;10.40;100.00;101905.22;5034820;28;19925;-69
2023/07/07 02:45:43;;;;;;;;;;;;;;;10.34;100.00;101903.69;5032246;28;19982;-70
2023/07/07 02:48:09;;;;;;;;;;;;;;;10.30;100.00;101906.69;5034229;28;20506;-70
2023/07/07 02:50:34;;;;;;;;;;;;;;;10.21;100.00;101911.63;4997137;28;20027;-70
2023/07/07 02:52:59;;;;;;;;;;;;;;;10.20;100.00;101914.41;5028219;28;19925;-70
2023/07/07 02:55:24;;;;;;;;;;;;;;;10.24;100.00;101912.41;5028821;28;20010;-70
2023/07/07 02:57:49;;;;;;;;;;;;;;;10.27;100.00;101915.78;5035886;28;20264;-70
2023/07/07 03:00:15;;;;;;;;;;;;;;;10.25;100.00;101923.06;5034242;28;19931;-70
2023/07/07 03:02:40;;;;;;;;;;;;;;;10.23;100.00;101926.78;5014908;28;19924;-70
2023/07/07 03:05:06;;;;;;;;;;;;;;;10.13;100.00;101932.72;5017610;28;20508;-70
2023/07/07 03:07:31;;;;;;;;;;;;;;;10.05;100.00;101924.22;5034125;28;20310;-70
2023/07/07 03:09:56;;;;;;;;;;;;;;;10.01;100.00;101933.41;5033384;28;19917;-70
2023/07/07 03:12:21;;;;;;;;;;;;;;;10.03;100.00;101937.75;5033856;28;19972;-70
2023/07/07 03:14:46;;;;;;;;;;;;;;;10.05;100.00;101933.16;5033778;28;20009;-70
2023/07/07 03:17:12;;;;;;;;;;;;;;;10.03;100.00;101931.50;5016910;28;19927;-70
2023/07/07 03:19:37;;;;;;;;;;;;;;;10.01;100.00;101930.72;5033266;28;19940;-70
2023/07/07 03:22:02;;;;;;;;;;;;;;;10.04;100.00;101923.38;5016859;28;19929;-70
2023/07/07 03:24:27;;;;;;;;;;;;;;;10.01;100.00;101928.03;5037178;28;19924;-70
2023/07/07 03:26:53;;;;;;;;;;;;;;;9.97;100.00;101935.41;5030441;28;19925;-71
2023/07/07 03:29:18;;;;;;;;;;;;;;;9.88;100.00;101938.63;5016449;28;19979;-71
2023/07/07 03:31:43;;;;;;;;;;;;;;;9.69;100.00;101938.78;5015351;28;20729;-70
2023/07/07 03:34:08;;;;;;;;;;;;;;;9.70;100.00;101937.84;5029807;28;20588;-70
2023/07/07 03:36:34;;;;;;;;;;;;;;;9.66;100.00;101939.84;5029741;28;19931;-70
2023/07/07 03:39:00;;;;;;;;;;;;;;;9.65;100.00;101939.94;5016513;28;19925;-70
2023/07/07 03:41:26;;;;;;;;;;;;;;;9.59;100.00;101938.44;5017764;28;19936;-70
2023/07/07 03:43:53;;;;;;;;;;;;;;;9.59;100.00;101933.97;5016366;28;20090;-70
2023/07/07 03:46:18;;;;;;;;;;;;;;;9.63;100.00;101941.84;5034040;28;19983;-70
2023/07/07 03:48:44;;;;;;;;;;;;;;;9.60;100.00;101941.06;5017571;28;20027;-71
2023/07/07 03:51:09;;;;;;;;;;;;;;;9.60;100.00;101945.53;5033258;28;19983;-71
2023/07/07 03:53:35;;;;;;;;;;;;;;;9.64;100.00;101949.78;5013175;28;19967;-70
2023/07/07 03:56:00;;;;;;;;;;;;;;;9.72;100.00;101949.34;5014413;28;19950;-71
2023/07/07 03:58:26;;;;;;;;;;;;;;;9.79;100.00;101948.06;5033688;28;19924;-71
2023/07/07 04:00:51;;;;;;;;;;;;;;;9.92;100.00;101944.69;5010935;28;19967;-71
2023/07/07 04:03:17;;;;;;;;;;;;;;;10.04;100.00;101949.31;5011054;28;19932;-70
2023/07/07 04:05:43;;;;;;;;;;;;;;;10.13;100.00;101956.84;5028877;28;20539;-70
2023/07/07 04:08:08;;;;;;;;;;;;;;;10.10;100.00;101950.78;5017717;28;19966;-70
2023/07/07 04:10:33;;;;;;;;;;;;;;;10.06;100.00;101950.09;5031955;28;20516;-70
2023/07/07 04:12:58;;;;;;;;;;;;;;;10.06;100.00;101947.44;5034727;28;19930;-71
2023/07/07 04:15:24;;;;;;;;;;;;;;;10.12;100.00;101941.72;5032938;28;20001;-70
2023/07/07 04:17:49;;;;;;;;;;;;;;;10.12;100.00;101946.19;5017352;28;19921;-70
2023/07/07 04:20:14;;;;;;;;;;;;;;;10.05;100.00;101946.56;5033811;28;19963;-70
2023/07/07 04:22:39;;;;;;;;;;;;;;;10.08;100.00;101956.25;5033210;28;19917;-70
2023/07/07 04:25:12;;;;;;;;;;;;;;;10.11;100.00;101947.16;5033429;28;19986;-70
2023/07/07 04:27:37;;;;;;;;;;;;;;;10.16;100.00;101950.44;5020272;28;20361;-70
2023/07/07 04:30:03;;;;;;;;;;;;;;;10.14;100.00;101955.03;5002822;28;20363;-70
2023/07/07 04:32:28;;;;;;;;;;;;;;;10.10;100.00;101957.03;5015320;28;20356;-70
2023/07/07 04:34:53;;;;;;;;;;;;;;;10.17;100.00;101955.72;5016836;28;20423;-70
2023/07/07 04:37:20;;;;;;;;;;;;;;;10.28;100.00;101967.63;5019048;28;20379;-70
2023/07/07 04:39:45;;;;;;;;;;;;;;;10.28;100.00;101965.84;5019292;28;20007;-70
2023/07/07 04:42:10;;;;;;;;;;;;;;;10.35;100.00;101964.50;5016327;28;19936;-70
2023/07/07 04:44:35;;;;;;;;;;;;;;;10.40;100.00;101964.28;5036741;28;19929;-70
2023/07/07 04:47:01;;;;;;;;;;;;;;;10.43;100.00;101939.94;5030737;28;19925;-70
2023/07/07 04:49:26;;;;;;;;;;;;;;;10.56;100.00;101941.88;5000786;28;19932;-70
2023/07/07 04:51:51;;;;;;;;;;;;;;;10.83;100.00;101949.22;5016974;28;20013;-70
2023/07/07 04:54:16;;;;;;;;;;;;;;;11.01;100.00;101958.81;5034390;28;20045;-70
2023/07/07 04:56:44;;;;;;;;;;;;;;;11.19;100.00;101953.28;5035599;28;20300;-70
2023/07/07 04:59:09;;;;;;;;;;;;;;;11.37;100.00;101957.47;5032830;28;19928;-70
2023/07/07 05:01:35;;;;;;;;;;;;;;;11.54;100.00;101959.09;5033417;28;19917;-70
2023/07/07 05:04:01;;;;;;;;;;;;;;;11.70;100.00;101955.41;5035166;28;20327;-70
2023/07/07 05:06:27;;;;;;;;;;;;;;;11.88;100.00;101960.56;5034266;28;19924;-70
2023/07/07 05:08:52;;;;;;;;;;;;;;;12.04;100.00;101958.59;5034444;28;19928;-70
2023/07/07 05:11:18;;;;;;;;;;;;;;;12.06;100.00;101942.34;5029646;28;20283;-70
2023/07/07 05:13:48;;;;;;;;;;;;;;;12.36;100.00;101957.41;5020353;28;19971;-70
2023/07/07 05:16:14;;;;;;;;;;;;;;;12.55;100.00;101963.28;5023501;28;19925;-70
2023/07/07 05:18:39;;;;;;;;;;;;;;;12.68;100.00;101965.13;5025477;28;20006;-70
2023/07/07 05:21:05;;;;;;;;;;;;;;;12.83;100.00;101961.38;5033233;28;20325;-70
2023/07/07 05:23:30;;;;;;;;;;;;;;;12.97;100.00;101952.34;5018415;28;19927;-70
2023/07/07 05:25:55;;;;;;;;;;;;;;;13.13;100.00;101953.94;5016140;28;20232;-70
2023/07/07 05:28:21;;;;;;;;;;;;;;;13.26;100.00;101946.69;5030304;28;19920;-70
2023/07/07 05:30:46;;;;;;;;;;;;;;;13.37;100.00;101954.03;5022239;28;19924;-70
2023/07/07 05:33:11;;;;;;;;;;;;;;;13.48;100.00;101962.22;5038824;28;20003;-70
2023/07/07 05:35:44;;;;;;;;;;;;;;;13.59;100.00;101955.19;5021560;28;20379;-70
2023/07/07 05:38:10;;;;;;;;;;;;;;;13.70;100.00;101957.09;5038155;28;19979;-70
2023/07/07 05:40:35;;;;;;;;;;;;;;;13.84;100.00;101958.78;5018903;28;19920;-70
2023/07/07 05:43:00;;;;;;;;;;;;;;;13.99;100.00;101959.47;5034563;28;19920;-71
2023/07/07 05:45:25;;;;;;;;;;;;;;;14.10;100.00;101959.53;5034510;28;19931;-70
2023/07/07 05:47:50;;;;;;;;;;;;;;;14.26;100.00;101964.63;5017850;28;20110;-70
2023/07/07 05:50:16;;;;;;;;;;;;;;;14.42;100.00;101964.34;5037101;28;19964;-70
2023/07/07 05:52:41;;;;;;;;;;;;;;;14.59;100.00;101963.03;5038006;28;20034;-70
2023/07/07 05:55:21;;;;;;;;;;;;;;;14.70;100.00;101952.28;5038459;28;19925;-69
2023/07/07 05:57:47;;;;;;;;;;;;;;;14.85;100.00;101960.19;5019719;28;20278;-70
2023/07/07 06:00:13;;;;;;;;;;;;;;;14.98;100.00;101954.66;5037458;28;19921;-70
2023/07/07 06:02:39;;;;;;;;;;;;;;;15.09;100.00;101956.50;5035161;28;20326;-70
2023/07/07 06:05:04;;;;;;;;;;;;;;;15.24;100.00;101952.56;5037727;28;19924;-70
2023/07/07 06:07:30;;;;;;;;;;;;;;;15.39;100.00;101958.59;5035236;28;20006;-70
2023/07/07 06:09:57;;;;;;;;;;;;;;;15.55;100.00;101947.38;5035167;28;19948;-70
2023/07/07 06:12:23;;;;;;;;;;;;;;;15.71;100.00;101948.84;5031291;28;19981;-71
2023/07/07 06:14:48;;;;;;;;;;;;;;;15.86;100.00;101954.88;5016628;28;20367;-70
2023/07/07 06:17:13;;;;;;;;;;;;;;;15.98;100.00;101953.00;5017344;28;20426;-71
2023/07/07 06:19:38;;;;;;;;;;;;;;;16.08;100.00;101951.22;5013418;28;20390;-71
2023/07/07 06:22:04;;;;;;;;;;;;;;;16.26;100.00;101954.25;5028082;28;19928;-71
2023/07/07 06:24:29;;;;;;;;;;;;;;;16.44;100.00;101950.94;5028360;28;20409;-71
2023/07/07 06:26:54;;;;;;;;;;;;;;;16.57;100.00;101958.88;5033024;28;20028;-71
2023/07/07 06:29:19;;;;;;;;;;;;;;;16.71;100.00;101952.28;5018529;28;19924;-71
2023/07/07 06:31:44;;;;;;;;;;;;;;;16.91;100.00;101950.56;5030240;28;19978;-71
2023/07/07 06:34:10;;;;;;;;;;;;;;;17.05;100.00;101950.25;5005268;28;20339;-70
2023/07/07 06:36:35;;;;;;;;;;;;;;;17.21;100.00;101954.31;5024575;28;19935;-70
2023/07/07 06:39:00;;;;;;;;;;;;;;;17.38;100.00;101952.81;5002563;28;20394;-71
2023/07/07 06:41:25;;;;;;;;;;;;;;;17.52;100.00;101951.56;5031837;28;20256;-71
2023/07/07 06:43:50;;;;;;;;;;;;;;;17.66;100.00;101945.72;5029626;28;20465;-70
2023/07/07 06:46:22;;;;;;;;;;;;;;;17.76;100.00;101956.63;5016759;28;20371;-70
2023/07/07 06:48:48;;;;;;;;;;;;;;;17.95;100.00;101958.50;5035375;28;19925;-70
2023/07/07 06:51:13;;;;;;;;;;;;;;;18.10;100.00;101950.00;5013872;28;20368;-70
2023/07/07 06:53:38;;;;;;;;;;;;;;;18.27;100.00;101948.44;5017986;28;20299;-71
2023/07/07 06:56:04;;;;;;;;;;;;;;;18.38;100.00;101942.81;5033087;28;20689;-70
2023/07/07 06:58:30;;;;;;;;;;;;;;;18.56;100.00;101950.22;5034651;28;20286;-70
2023/07/07 07:00:55;;;;;;;;;;;;;;;18.62;100.00;101955.09;5017855;28;20016;-70
2023/07/07 07:03:20;;;;;;;;;;;;;;;18.73;100.00;101954.06;5032596;28;19936;-70
2023/07/07 07:05:45;;;;;;;;;;;;;;;18.80;100.00;101955.22;5028683;28;19925;-70
2023/07/07 07:08:11;;;;;;;;;;;;;;;18.98;100.00;101954.47;5016464;28;21079;-70
2023/07/07 07:10:36;;;;;;;;;;;;;;;19.07;100.00;101956.31;5033642;28;20587;-70
2023/07/07 07:13:01;;;;;;;;;;;;;;;19.21;100.00;101954.97;5015937;28;20379;-70
2023/07/07 07:15:26;;;;;;;;;;;;;;;19.31;100.00;101954.94;5034664;28;20124;-69
2023/07/07 07:17:52;;;;;;;;;;;;;;;19.49;100.00;101958.56;5033489;28;20387;-70
2023/07/07 07:20:17;;;;;;;;;;;;;;;19.62;100.00;101960.09;5033185;28;20420;-70
2023/07/07 07:22:42;;;;;;;;;;;;;;;19.73;100.00;101962.59;5016430;28;20291;-70
2023/07/07 07:25:08;;;;;;;;;;;;;;;19.86;100.00;101961.38;5002785;28;20051;-69
2023/07/07 07:27:33;;;;;;;;;;;;;;;20.00;100.00;101962.75;5017290;28;19928;-71
2023/07/07 07:29:58;;;;;;;;;;;;;;;20.15;100.00;101965.78;5036670;28;19932;-69
2023/07/07 07:32:24;;;;;;;;;;;;;;;20.18;100.00;101963.59;5034928;28;20072;-73
2023/07/07 07:34:49;;;;;;;;;;;;;;;20.23;99.43;101964.00;5034454;28;19924;-69
2023/07/07 07:37:14;;;;;;;;;;;;;;;20.33;100.00;101963.06;4997590;28;19986;-70
2023/07/07 07:39:40;;;;;;;;;;;;;;;20.45;97.00;101963.66;5017588;28;20447;-70
2023/07/07 07:42:05;;;;;;;;;;;;;;;20.54;94.54;101968.16;5035471;28;19925;-72
2023/07/07 07:44:30;;;;;;;;;;;;;;;20.68;100.00;101966.72;5035112;28;20101;-71
2023/07/07 07:46:56;;;;;;;;;;;;;;;20.72;92.14;101973.59;5014399;28;19974;-74
2023/07/07 07:49:21;;;;;;;;;;;;;;;20.85;93.79;101972.34;5016218;28;20434;-71
2023/07/07 07:51:47;;;;;;;;;;;;;;;20.98;99.48;101979.09;5009737;28;20000;-70
2023/07/07 07:54:12;;;;;;;;;;;;;;;21.14;97.76;101966.56;5011285;28;19988;-72
2023/07/07 07:56:38;;;;;;;;;;;;;;;21.22;90.59;101969.34;5014787;28;19985;-73
2023/07/07 07:59:03;;;;;;;;;;;;;;;21.18;89.93;101973.41;5016967;28;19935;-71
2023/07/07 08:01:28;;;;;;;;;;;;;;;21.33;83.79;101983.72;5025080;28;20267;-72
2023/07/07 08:03:54;;;;;;;;;;;;;;;21.40;90.56;101976.59;5033931;28;19964;-73
2023/07/07 08:06:19;;;;;;;;;;;;;;;21.53;87.09;101978.84;5025892;28;20015;-72
2023/07/07 08:08:45;;;;;;;;;;;;;;;21.67;83.40;101972.81;5029156;28;20202;-71
2023/07/07 08:11:14;;;;;;;;;;;;;;;21.78;78.98;101970.78;5040268;28;19935;-70
2023/07/07 08:13:39;;;;;;;;;;;;;;;21.94;83.88;101981.78;5032983;28;20310;-69
2023/07/07 08:16:04;;;;;;;;;;;;;;;21.87;77.82;101981.56;5016564;28;19924;-73
2023/07/07 08:18:30;;;;;;;;;;;;;;;21.73;76.33;101971.28;5013927;28;19924;-74
2023/07/07 08:20:55;;;;;;;;;;;;;;;21.72;76.66;101973.16;5026135;28;20356;-77
2023/07/07 08:23:20;;;;;;;;;;;;;;;21.77;78.61;101967.19;5017978;28;20335;-73
2023/07/07 08:25:46;;;;;;;;;;;;;;;21.94;76.07;101976.31;5008912;28;20390;-70
2023/07/07 08:28:11;;;;;;;;;;;;;;;22.08;77.57;101983.00;5015994;28;20382;-72
2023/07/07 08:30:36;;;;;;;;;;;;;;;22.02;79.96;101943.50;5009350;28;19924;-73
2023/07/07 08:33:01;;;;;;;;;;;;;;;22.30;70.57;101977.88;5017409;28;19924;-73
2023/07/07 08:35:27;;;;;;;;;;;;;;;22.38;75.82;101971.56;5012535;28;19991;-74
2023/07/07 08:37:52;;;;;;;;;;;;;;;22.38;77.94;101983.34;5013936;28;19929;-71
2023/07/07 08:40:18;;;;;;;;;;;;;;;22.55;78.01;101978.75;5013968;28;19962;-72
2023/07/07 08:42:44;;;;;;;;;;;;;;;22.67;69.08;101983.91;5017258;28;20014;-69
2023/07/07 08:45:14;;;;;;;;;;;;;;;22.81;69.40;101974.13;5015884;28;20012;-71
2023/07/07 08:47:46;;;;;;;;;;;;;;;22.96;73.64;101980.59;5008875;28;19921;-71
2023/07/07 08:50:11;;;;;;;;;;;;;;;23.05;72.10;101984.16;5011819;28;20372;-71
2023/07/07 08:52:42;;;;;;;;;;;;;;;23.21;75.81;101984.19;5014207;28;20012;-72
2023/07/07 08:55:08;;;;;;;;;;;;;;;23.23;76.71;101972.19;5012466;28;20423;-71
2023/07/07 08:57:35;;;;;;;;;;;;;;;23.29;72.70;101977.81;5035170;28;19928;-70
2023/07/07 09:00:02;;;;;;;;;;;;;;;23.36;67.26;101976.09;5000748;28;19970;-70
2023/07/07 09:02:46;;;;;;;;;;;;;;;23.54;76.25;101983.19;5014676;28;20371;-70
2023/07/07 09:05:24;;;;;;;;;;;;;;;23.57;64.18;101974.63;5027409;28;19929;-71
2023/07/07 09:07:55;;;;;;;;;;;;;;;23.61;67.42;101977.84;5017040;28;19924;-74
2023/07/07 09:10:27;;;;;;;;;;;;;;;23.66;65.59;101979.03;5035307;28;20382;-71
2023/07/07 09:12:57;;;;;;;;;;;;;;;23.50;61.02;101927.91;5021846;28;20015;-70
2023/07/07 09:15:23;;;;;;;;;;;;;;;24.00;67.28;101974.25;5017853;28;20428;-70
2023/07/07 09:17:49;;;;;;;;;;;;;;;24.16;60.10;101977.91;5020104;28;19921;-72
2023/07/07 09:20:14;;;;;;;;;;;;;;;24.12;60.46;101974.69;5019388;28;19925;-72
2023/07/07 09:22:43;;;;;;;;;;;;;;;24.11;61.58;101976.53;5021813;28;20449;-71
2023/07/07 09:25:12;;;;;;;;;;;;;;;24.37;60.04;101972.56;5037385;28;20307;-70
2023/07/07 09:27:41;;;;;;;;;;;;;;;24.56;54.92;101973.13;5037204;28;19947;-69
2023/07/07 09:30:10;;;;;;;;;;;;;;;24.42;58.73;101966.56;5019963;28;19924;-72
2023/07/07 09:32:35;;;;;;;;;;;;;;;24.48;54.67;101970.44;5010509;28;19932;-73
2023/07/07 09:35:00;;;;;;;;;;;;;;;24.60;51.56;101965.38;5013578;28;19925;-70
2023/07/07 09:37:37;;;;;;;;;;;;;;;24.69;54.39;101967.84;5032274;28;19917;-71
2023/07/07 09:40:18;;;;;;;;;;;;;;;24.79;57.87;101967.59;5013582;28;20430;-69
2023/07/07 09:42:43;;;;;;;;;;;;;;;24.60;53.42;101960.75;5008711;28;19942;-71
2023/07/07 09:45:11;;;;;;;;;;;;;;;24.67;50.72;101960.84;5037042;28;20434;-71
2023/07/07 09:47:42;;;;;;;;;;;;;;;24.81;55.98;101956.44;5034617;28;19927;-71
2023/07/07 09:50:12;;;;;;;;;;;;;;;24.83;54.45;101957.13;5031151;28;19948;-70
2023/07/07 09:52:39;;;;;;;;;;;;;;;25.25;52.18;101957.50;5010310;28;19967;-71
2023/07/07 09:55:12;;;;;;;;;;;;;;;25.38;60.76;101957.69;5018017;28;19958;-70
2023/07/07 09:57:39;;;;;;;;;;;;;;;25.22;48.36;101922.16;5017420;28;19929;-71
2023/07/07 10:00:04;;;;;;;;;;;;;;;25.42;45.87;101955.41;5018987;28;19925;-70
2023/07/07 10:02:29;;;;;;;;;;;;;;;25.72;50.50;101955.34;5017848;28;20299;-70
2023/07/07 10:04:57;;;;;;;;;;;;;;;25.56;48.38;101950.94;5017631;28;19929;-71
2023/07/07 10:07:22;;;;;;;;;;;;;;;25.69;50.15;101955.78;5035430;28;19925;-73
2023/07/07 10:09:47;;;;;;;;;;;;;;;25.79;49.45;101950.78;5016677;28;20721;-73
2023/07/07 10:12:16;;;;;;;;;;;;;;;25.78;56.62;101953.75;5019669;28;20733;-70
2023/07/07 10:14:42;;;;;;;;;;;;;;;25.98;48.07;101952.06;5035788;28;20410;-71
2023/07/07 10:17:14;;;;;;;;;;;;;;;26.13;51.04;101949.28;5016235;28;19925;-71
2023/07/07 10:19:40;;;;;;;;;;;;;;;26.17;53.84;101953.34;5002227;28;20590;-74
2023/07/07 10:22:06;;;;;;;;;;;;;;;26.09;45.77;101944.34;5011609;28;20003;-72
2023/07/07 10:24:32;;;;;;;;;;;;;;;26.21;51.73;101934.53;5020564;28;20201;-69
2023/07/07 10:26:58;;;;;;;;;;;;;;;26.38;42.08;101937.88;5034392;28;19928;-71
2023/07/07 10:29:26;;;;;;;;;;;;;;;26.73;46.96;101940.69;5017002;28;19928;-70
2023/07/07 10:31:51;;;;;;;;;;;;;;;26.95;48.22;101935.97;5020160;28;19974;-70
2023/07/07 10:34:24;;;;;;;;;;;;;;;27.06;45.65;101933.72;5000312;28;19921;-70
2023/07/07 10:36:49;;;;;;;;;;;;;;;27.10;44.14;101935.00;5020999;28;19927;-73
2023/07/07 10:39:14;;;;;;;;;;;;;;;27.15;44.07;101937.13;5018225;28;19960;-71
2023/07/07 10:41:40;;;;;;;;;;;;;;;27.34;43.96;101925.34;5012971;28;19931;-70
2023/07/07 10:44:05;;;;;;;;;;;;;;;28.01;44.96;101930.25;5037662;28;19920;-70
2023/07/07 10:46:30;;;;;;;;;;;;;;;27.68;45.90;101928.25;5015441;28;19925;-71
2023/07/07 10:48:56;;;;;;;;;;;;;;;27.08;41.72;101931.59;5036651;28;19925;-73
2023/07/07 10:51:28;;;;;;;;;;;;;;;27.41;45.34;101922.66;5000309;28;20806;-71
2023/07/07 10:53:53;;;;;;;;;;;;;;;27.54;41.53;101900.66;5020488;28;19935;-71
2023/07/07 10:56:27;;;;;;;;;;;;;;;28.50;44.93;101930.06;5037948;28;19917;-69
2023/07/07 10:59:10;;;;;;;;;;;;;;;28.72;37.78;101934.31;5029105;28;20141;-71
2023/07/07 11:01:54;;;;;;;;;;;;;;;28.04;40.37;101921.53;5036640;28;19997;-71
2023/07/07 11:04:23;;;;;;;;;;;;;;;28.25;41.18;101923.28;5018752;28;20027;-72
2023/07/07 11:06:48;;;;;;;;;;;;;;;28.53;41.24;101915.84;5020302;28;19959;-70
2023/07/07 11:09:25;;;;;;;;;;;;;;;29.22;38.23;101921.03;5036060;28;19924;-70
2023/07/07 11:11:53;;;;;;;;;;;;;;;29.21;39.50;101914.66;5017454;28;20378;-71
2023/07/07 11:14:21;;;;;;;;;;;;;;;29.31;37.58;101912.25;5025285;28;19972;-70
2023/07/07 11:16:53;;;;;;;;;;;;;;;29.76;38.84;101914.19;5038875;28;19930;-70
2023/07/07 11:19:21;;;;;;;;;;;;;;;29.12;38.34;101919.59;5020270;28;19936;-72
2023/07/07 11:21:49;;;;;;;;;;;;;;;29.15;38.11;101907.22;5035527;28;20005;-69
2023/07/07 11:24:20;;;;;;;;;;;;;;;30.11;39.11;101904.59;5033693;28;19936;-69
2023/07/07 11:26:51;;;;;;;;;;;;;;;30.10;36.87;101905.66;5010657;28;20363;-76
2023/07/07 11:29:23;;;;;;;;;;;;;;;29.75;44.66;101912.47;5019301;28;20353;-69
2023/07/07 11:32:01;;;;;;;;;;;;;;;29.82;40.21;101906.06;5033748;28;19983;-74
2023/07/07 11:34:36;;;;;;;;;;;;;;;30.15;35.56;101894.75;5016271;28;20129;-69
2023/07/07 11:37:05;;;;;;;;;;;;;;;30.48;38.00;101899.16;5018902;28;19916;-72
2023/07/07 11:39:36;;;;;;;;;;;;;;;30.95;40.77;101898.72;5041827;28;20370;-71
2023/07/07 11:42:20;;;;;;;;;;;;;;;30.79;36.28;101894.63;5036040;28;21048;-70
2023/07/07 11:44:54;;;;;;;;;;;;;;;31.16;32.80;101898.47;5029921;28;19952;-72
2023/07/07 11:47:27;;;;;;;;;;;;;;;31.37;39.40;101889.69;5000865;28;20429;-71
2023/07/07 11:50:10;;;;;;;;;;;;;;;31.75;33.09;101889.59;5016060;28;19924;-70
2023/07/07 11:52:41;;;;;;;;;;;;;;;31.76;36.65;101889.38;5015656;28;20095;-77
2023/07/07 11:55:25;;;;;;;;;;;;;;;30.97;35.81;101885.47;5015937;28;19963;-73
2023/07/07 11:58:04;;;;;;;;;;;;;;;32.02;34.53;101887.25;5035222;28;19931;-71
2023/07/07 12:00:48;;;;;;;;;;;;;;;30.90;34.04;101886.59;5014155;28;19979;-71
2023/07/07 12:03:13;;;;;;;;;;;;;;;31.68;33.04;101884.13;5030997;28;19925;-74
2023/07/07 12:05:38;;;;;;;;;;;;;;;31.54;33.00;101884.28;5012954;28;20217;-68
2023/07/07 12:08:05;;;;;;;;;;;;;;;32.42;31.43;101877.41;5017092;28;20447;-68
2023/07/07 12:10:34;;;;;;;;;;;;;;;32.91;30.57;101877.13;5017157;28;19997;-68
2023/07/07 12:13:03;;;;;;;;;;;;;;;32.36;32.34;101872.81;5017088;28;20015;-71
2023/07/07 12:15:29;;;;;;;;;;;;;;;32.30;32.10;101874.63;5008132;28;19928;-68
2023/07/07 12:18:03;;;;;;;;;;;;;;;32.36;29.85;101875.59;5017162;28;19924;-69
2023/07/07 12:20:37;;;;;;;;;;;;;;;33.39;28.37;101883.41;5013116;28;19971;-69
2023/07/07 12:23:02;;;;;;;;;;;;;;;34.02;31.17;101871.44;5016214;28;19929;-67
2023/07/07 12:25:30;;;;;;;;;;;;;;;33.63;28.72;101880.50;5013317;28;19932;-72
2023/07/07 12:27:56;;;;;;;;;;;;;;;32.58;28.78;101870.25;4997903;28;19925;-70
2023/07/07 12:30:21;;;;;;;;;;;;;;;32.44;32.12;101862.16;5007790;28;20515;-71